Time;durP1;ratioP1;P1;durP2;ratioP2;P2;SDS_P1;SDS_P2;PMS_P1;PMS_P2;Temp;Humidity;BMP_temperature;BMP_pressure;BME280_temperature;BME280_humidity;BME280_pressure;Samples;Min_cycle;Max_cycle;Signal;HPM_P1;HPM_P2
2023/10/06 00:02:20;;;;;;;8.93;3.80;;;14.70;99.90;;;;;;5091859;28;20040;-66
2023/10/06 00:04:46;;;;;;;11.55;3.95;;;14.70;99.90;;;;;;5091631;28;20055;-66
2023/10/06 00:07:14;;;;;;;7.70;3.22;;;14.70;99.90;;;;;;5092553;28;20059;-66
2023/10/06 00:09:43;;;;;;;10.50;3.80;;;14.70;99.90;;;;;;5091375;28;20052;-66
2023/10/06 00:12:13;;;;;;;13.43;3.95;;;14.70;99.90;;;;;;5091517;28;20047;-66
2023/10/06 00:14:39;;;;;;;11.40;3.47;;;14.70;99.90;;;;;;5091985;28;20493;-67
2023/10/06 00:17:15;;;;;;;8.23;3.42;;;14.70;99.90;;;;;;5092468;28;20498;-67
2023/10/06 00:19:42;;;;;;;11.48;3.95;;;14.70;99.90;;;;;;5092127;28;20043;-66
2023/10/06 00:24:37;;;;;;;8.68;3.28;;;14.70;99.90;;;;;;5091110;28;20047;-66
2023/10/06 00:27:03;;;;;;;13.85;3.38;;;14.70;99.90;;;;;;5091325;28;20084;-67
2023/10/06 00:29:29;;;;;;;12.48;3.75;;;14.70;99.90;;;;;;5092000;28;20043;-66
2023/10/06 00:32:03;;;;;;;9.05;3.45;;;14.60;99.90;;;;;;5092446;28;20050;-66
2023/10/06 00:34:30;;;;;;;9.40;3.50;;;14.60;99.90;;;;;;5090907;28;20048;-67
2023/10/06 00:37:01;;;;;;;11.70;3.55;;;14.60;99.90;;;;;;5091373;28;20134;-67
2023/10/06 00:39:30;;;;;;;9.18;3.50;;;14.60;99.90;;;;;;5090288;28;20401;-70
2023/10/06 00:42:00;;;;;;;11.98;3.33;;;14.60;99.90;;;;;;5090909;28;20073;-66
2023/10/06 00:44:26;;;;;;;13.05;4.07;;;14.60;99.90;;;;;;5074356;28;20087;-71
2023/10/06 00:46:52;;;;;;;8.85;3.63;;;14.60;99.90;;;;;;5092421;28;20143;-67
2023/10/06 00:49:19;;;;;;;11.02;4.00;;;14.60;99.90;;;;;;5091070;28;20040;-68
2023/10/06 00:51:47;;;;;;;11.57;3.85;;;14.60;99.90;;;;;;5091827;28;20102;-67
2023/10/06 00:54:14;;;;;;;8.80;3.85;;;14.60;99.90;;;;;;5096179;28;20051;-66
2023/10/06 00:56:39;;;;;;;14.75;4.40;;;14.60;99.90;;;;;;5094613;28;20056;-66
2023/10/06 00:59:05;;;;;;;9.15;3.25;;;14.70;99.90;;;;;;5095170;28;20161;-67
2023/10/06 01:01:34;;;;;;;11.60;3.70;;;14.60;99.90;;;;;;5095496;28;20365;-67
2023/10/06 01:04:11;;;;;;;11.70;3.72;;;14.60;99.90;;;;;;5095012;28;20055;-66
2023/10/06 01:06:39;;;;;;;9.73;4.10;;;14.60;99.90;;;;;;5095910;28;20409;-66
2023/10/06 01:09:16;;;;;;;11.93;3.35;;;14.60;99.90;;;;;;5096053;28;20083;-67
2023/10/06 01:11:50;;;;;;;10.82;3.95;;;14.70;99.90;;;;;;5094505;28;20086;-67
2023/10/06 01:14:26;;;;;;;;;;;14.60;99.90;;;;;;5096617;28;20052;-66
2023/10/06 01:17:04;;;;;;;8.65;3.60;;;14.70;99.90;;;;;;5095624;28;19923;-67
2023/10/06 01:19:33;;;;;;;9.95;3.70;;;14.70;99.90;;;;;;5095735;28;20525;-68
2023/10/06 01:22:13;;;;;;;12.98;3.95;;;14.70;99.90;;;;;;5095937;28;20477;-68
2023/10/06 01:24:39;;;;;;;10.60;4.07;;;14.60;99.90;;;;;;5078318;28;20367;-69
2023/10/06 01:27:06;;;;;;;8.20;3.55;;;14.70;99.90;;;;;;5096016;28;20051;-66
2023/10/06 01:29:32;;;;;;;12.57;4.00;;;14.70;99.90;;;;;;5095455;28;20401;-68
2023/10/06 01:32:05;;;;;;;8.98;3.80;;;14.70;99.90;;;;;;5094246;28;20047;-68
2023/10/06 01:34:38;;;;;;;9.45;3.83;;;14.70;99.90;;;;;;5095641;28;20120;-66
2023/10/06 01:37:05;;;;;;;10.80;3.88;;;14.70;99.90;;;;;;5094428;28;20075;-66
2023/10/06 01:39:37;;;;;;;13.05;4.10;;;14.60;99.90;;;;;;5094114;28;20096;-66
2023/10/06 01:42:16;;;;;;;11.50;3.92;;;15.00;99.90;;;;;;5094116;28;20187;-66
2023/10/06 01:44:43;;;;;;;10.02;4.30;;;14.70;99.90;;;;;;5094369;28;20055;-66
2023/10/06 01:47:09;;;;;;;12.35;3.95;;;14.70;99.90;;;;;;5077680;28;20099;-67
2023/10/06 01:49:35;;;;;;;11.88;4.25;;;14.70;99.90;;;;;;5094235;28;20129;-66
2023/10/06 01:52:05;;;;;;;10.25;3.80;;;14.70;99.90;;;;;;5094728;28;20470;-67
2023/10/06 01:54:34;;;;;;;13.00;4.20;;;14.70;99.90;;;;;;5094054;28;20052;-67
2023/10/06 01:57:06;;;;;;;14.55;4.82;;;14.70;99.90;;;;;;5093692;28;20136;-66
2023/10/06 01:59:32;;;;;;;12.43;4.60;;;14.80;99.90;;;;;;5095471;28;20052;-67
2023/10/06 02:02:02;;;;;;;12.40;4.38;;;14.70;99.90;;;;;;5093607;28;20148;-67
2023/10/06 02:04:38;;;;;;;10.38;4.28;;;14.70;99.90;;;;;;5094014;28;20044;-66
2023/10/06 02:07:05;;;;;;;12.80;4.80;;;14.70;99.90;;;;;;5095345;28;20054;-67
2023/10/06 02:09:32;;;;;;;15.88;5.25;;;14.80;99.90;;;;;;5093848;28;20150;-65
2023/10/06 02:11:58;;;;;;;12.00;5.10;;;14.80;99.90;;;;;;5094516;28;20048;-66
2023/10/06 02:14:23;;;;;;;12.60;5.18;;;14.80;99.90;;;;;;5094867;28;20040;-66
2023/10/06 02:16:49;;;;;;;12.88;5.18;;;14.80;99.90;;;;;;5093179;28;20040;-66
2023/10/06 02:19:18;;;;;;;13.93;5.50;;;14.80;99.90;;;;;;5095027;28;20055;-66
2023/10/06 02:21:51;;;;;;;18.60;5.72;;;14.80;99.90;;;;;;5094503;28;20037;-66
2023/10/06 02:24:17;;;;;;;13.00;5.80;;;14.80;99.90;;;;;;5093622;28;20338;-66
2023/10/06 02:26:57;;;;;;;14.90;5.22;;;14.80;99.90;;;;;;5094328;28;20040;-70
2023/10/06 02:29:23;;;;;;;10.82;4.72;;;14.80;99.90;;;;;;5094986;28;20456;-66
2023/10/06 02:31:50;;;;;;;19.52;5.95;;;14.80;99.90;;;;;;5093641;28;20132;-66
2023/10/06 02:34:21;;;;;;;14.38;5.05;;;14.80;99.90;;;;;;5094555;28;20052;-66
2023/10/06 02:36:47;;;;;;;15.10;5.30;;;14.80;99.90;;;;;;5092971;28;20062;-66
2023/10/06 02:39:15;;;;;;;14.20;5.28;;;14.80;99.90;;;;;;5092628;28;20135;-67
2023/10/06 02:41:42;;;;;;;21.05;6.05;;;14.80;99.90;;;;;;5092736;28;20052;-70
2023/10/06 02:44:14;;;;;;;13.35;4.80;;;14.80;99.90;;;;;;5094180;28;20047;-67
2023/10/06 02:46:44;;;;;;;11.65;5.88;;;14.80;99.90;;;;;;5094472;28;20400;-66
2023/10/06 02:49:12;;;;;;;10.05;4.65;;;14.80;99.90;;;;;;5092978;28;20052;-65
2023/10/06 02:51:47;;;;;;;13.60;5.47;;;14.80;99.90;;;;;;5094117;28;20040;-67
2023/10/06 02:56:44;;;;;;;13.00;6.10;;;14.70;99.90;;;;;;5094027;28;20087;-66
2023/10/06 02:59:43;;;;;;;16.45;6.10;;;14.70;99.90;;;;;;5092758;28;20101;-66
2023/10/06 03:02:06;;;;;;;9.75;5.45;;;14.60;99.90;;;;;;5091911;28;20052;-66
2023/10/06 03:04:36;;;;;;;15.60;6.20;;;14.70;99.90;;;;;;5093999;28;20044;-66
2023/10/06 03:07:06;;;;;;;17.35;6.07;;;14.70;99.90;;;;;;5093428;28;20079;-67
2023/10/06 03:09:37;;;;;;;12.55;5.50;;;14.70;99.90;;;;;;5093954;28;20048;-66
2023/10/06 03:12:12;;;;;;;13.20;5.75;;;14.70;99.90;;;;;;5093546;28;20047;-65
2023/10/06 03:14:39;;;;;;;12.82;6.45;;;14.60;99.90;;;;;;5093453;28;20052;-65
2023/10/06 03:17:09;;;;;;;14.45;6.15;;;14.70;99.90;;;;;;5091901;28;20048;-66
2023/10/06 03:19:41;;;;;;;17.40;6.45;;;14.70;99.90;;;;;;5093733;28;20040;-66
2023/10/06 03:22:13;;;;;;;13.65;6.20;;;14.70;99.90;;;;;;5091848;28;20048;-66
2023/10/06 03:27:38;;;;;;;14.70;6.38;;;14.60;99.90;;;;;;5069317;28;20052;-66
2023/10/06 03:32:59;;;;;;;16.10;6.78;;;14.60;99.90;;;;;;5082842;28;20048;-67
2023/10/06 03:35:35;;;;;;;15.05;6.63;;;14.60;99.90;;;;;;5093040;28;20048;-66
2023/10/06 03:38:13;;;;;;;15.70;6.95;;;14.60;99.90;;;;;;5091326;28;20098;-66
2023/10/06 03:40:48;;;;;;;15.80;6.28;;;14.60;99.90;;;;;;5091554;28;20109;-66
2023/10/06 03:43:13;;;;;;;17.42;7.80;;;14.60;99.90;;;;;;5092318;28;20043;-66
2023/10/06 03:45:41;;;;;;;20.50;7.78;;;14.60;99.90;;;;;;5075108;28;20051;-66
2023/10/06 03:48:13;;;;;;;15.65;7.40;;;14.60;99.90;;;;;;5092613;28;20087;-66
2023/10/06 03:50:39;;;;;;;17.20;7.13;;;14.60;99.90;;;;;;5093097;28;20051;-66
2023/10/06 03:53:10;;;;;;;14.65;7.80;;;14.60;99.90;;;;;;5092350;28;20048;-66
2023/10/06 03:55:46;;;;;;;17.13;8.35;;;14.60;99.90;;;;;;5092955;28;20440;-66
2023/10/06 03:58:14;;;;;;;19.30;8.75;;;14.50;99.90;;;;;;5092346;28;20040;-66
2023/10/06 04:00:47;;;;;;;16.02;8.45;;;14.50;99.90;;;;;;5091537;28;20123;-67
2023/10/06 04:03:14;;;;;;;21.15;9.48;;;14.50;99.90;;;;;;5075258;28;20092;-66
2023/10/06 04:05:50;;;;;;;22.25;8.95;;;14.50;99.90;;;;;;5092776;28;20430;-67
2023/10/06 04:08:21;;;;;;;16.65;8.90;;;14.50;99.90;;;;;;5091258;28;20124;-67
2023/10/06 04:10:53;;;;;;;14.35;9.27;;;14.50;99.90;;;;;;5074539;28;20485;-66
2023/10/06 04:13:20;;;;;;;20.85;8.50;;;14.50;99.90;;;;;;5092389;28;20083;-67
2023/10/06 04:15:50;;;;;;;21.23;9.55;;;14.50;99.90;;;;;;5092781;28;20043;-66
2023/10/06 04:18:21;;;;;;;21.15;9.55;;;14.50;99.90;;;;;;5091232;28;20094;-66
2023/10/06 04:20:48;;;;;;;16.83;9.57;;;14.50;99.90;;;;;;5092696;28;20432;-66
2023/10/06 04:23:16;;;;;;;19.02;8.70;;;14.60;99.90;;;;;;5092227;28;20154;-66
2023/10/06 04:25:43;;;;;;;15.38;9.52;;;14.50;99.90;;;;;;5092439;28;20044;-66
2023/10/06 04:28:14;;;;;;;17.48;8.98;;;14.50;99.90;;;;;;5091293;28;20132;-66
2023/10/06 04:30:44;;;;;;;24.02;9.60;;;14.50;99.90;;;;;;5091453;28;20048;-65
2023/10/06 04:33:11;;;;;;;18.17;8.93;;;14.50;99.90;;;;;;5092143;28;20052;-66
2023/10/06 04:35:47;;;;;;;14.48;8.40;;;14.50;99.90;;;;;;5092455;28;20380;-67
2023/10/06 04:38:13;;;;;;;21.35;9.00;;;14.50;99.90;;;;;;5091014;28;20371;-66
2023/10/06 04:40:42;;;;;;;17.45;9.10;;;14.50;99.90;;;;;;5107948;28;20382;-66
2023/10/06 04:43:09;;;;;;;16.27;9.38;;;14.50;99.90;;;;;;5094100;28;20345;-66
2023/10/06 04:45:38;;;;;;;18.58;8.88;;;14.40;99.90;;;;;;5112688;28;20052;-66
2023/10/06 04:48:07;;;;;;;18.33;9.05;;;14.40;99.90;;;;;;5093996;28;20076;-71
2023/10/06 04:50:34;;;;;;;17.35;7.82;;;14.40;99.90;;;;;;5112733;28;20046;-66
2023/10/06 04:53:06;;;;;;;14.32;7.47;;;14.40;99.90;;;;;;5112485;28;20052;-66
2023/10/06 04:55:37;;;;;;;19.02;8.25;;;14.40;99.90;;;;;;5077599;28;20083;-66
2023/10/06 04:58:15;;;;;;;18.63;8.80;;;14.40;99.90;;;;;;5112464;28;20043;-72
2023/10/06 05:00:41;;;;;;;14.75;7.43;;;14.40;99.90;;;;;;5112437;28;20048;-66
2023/10/06 05:03:10;;;;;;;15.95;7.53;;;14.40;99.90;;;;;;5111904;28;20126;-67
2023/10/06 05:05:40;;;;;;;16.73;8.13;;;14.40;99.90;;;;;;5094467;28;20112;-67
2023/10/06 05:08:09;;;;;;;15.27;7.88;;;14.40;99.90;;;;;;5093654;28;20550;-71
2023/10/06 05:10:39;;;;;;;13.82;6.93;;;14.40;99.90;;;;;;5112189;28;20101;-66
2023/10/06 05:13:06;;;;;;;18.38;8.07;;;14.40;99.90;;;;;;5094159;28;20113;-72
2023/10/06 05:15:35;;;;;;;15.77;7.72;;;14.40;99.90;;;;;;5112156;28;20047;-66
2023/10/06 05:18:03;;;;;;;14.18;6.68;;;14.40;99.90;;;;;;5111949;28;20059;-66
2023/10/06 05:20:33;;;;;;;19.50;7.80;;;14.40;99.90;;;;;;5077180;28;20051;-66
2023/10/06 05:23:09;;;;;;;19.77;8.18;;;14.40;99.90;;;;;;5112409;28;20339;-67
2023/10/06 05:25:35;;;;;;;18.70;7.80;;;14.40;99.90;;;;;;5112581;28;20051;-66
2023/10/06 05:28:02;;;;;;;15.52;8.30;;;14.40;99.90;;;;;;5094060;28;20044;-66
2023/10/06 05:30:28;;;;;;;17.83;7.13;;;14.40;99.90;;;;;;5111668;28;20144;-65
2023/10/06 05:32:58;;;;;;;13.68;7.18;;;14.40;99.90;;;;;;5077361;28;20078;-67
2023/10/06 05:35:28;;;;;;;17.63;7.70;;;14.50;99.90;;;;;;5111619;28;20055;-67
2023/10/06 05:37:54;;;;;;;18.17;7.53;;;14.40;99.90;;;;;;5094155;28;20166;-66
2023/10/06 05:40:20;;;;;;;12.30;7.25;;;14.40;99.90;;;;;;5096761;28;20171;-67
2023/10/06 05:42:49;;;;;;;17.15;7.28;;;14.40;99.90;;;;;;5097616;28;20052;-66
2023/10/06 05:45:19;;;;;;;15.85;7.95;;;14.40;99.90;;;;;;5115146;28;20134;-66
2023/10/06 05:47:51;;;;;;;14.38;7.03;;;14.30;99.90;;;;;;5115660;28;20122;-66
2023/10/06 05:50:29;;;;;;;18.40;7.38;;;14.30;99.90;;;;;;5115139;28;20096;-66
2023/10/06 05:52:58;;;;;;;13.73;7.13;;;14.30;99.90;;;;;;5097495;28;20047;-66
2023/10/06 05:55:32;;;;;;;15.82;7.40;;;14.30;99.90;;;;;;5115185;28;20035;-66
2023/10/06 05:58:00;;;;;;;15.48;6.85;;;14.30;99.90;;;;;;5097237;28;20047;-66
2023/10/06 06:00:33;;;;;;;15.40;7.60;;;14.30;99.90;;;;;;5115209;28;20043;-67
2023/10/06 06:03:09;;;;;;;15.10;7.28;;;14.30;99.90;;;;;;5097264;28;20044;-67
2023/10/06 06:05:38;;;;;;;16.25;7.05;;;14.30;99.90;;;;;;5096805;28;20386;-65
2023/10/06 06:08:10;;;;;;;18.02;7.97;;;14.30;99.90;;;;;;5114865;28;20050;-66
2023/10/06 06:10:36;;;;;;;14.85;6.88;;;14.40;99.90;;;;;;5096408;28;20470;-66
2023/10/06 06:13:02;;;;;;;13.25;6.10;;;14.40;99.90;;;;;;5115261;28;20083;-66
2023/10/06 06:15:29;;;;;;;16.90;7.70;;;14.40;99.90;;;;;;5079718;28;20051;-67
2023/10/06 06:17:58;;;;;;;16.15;6.68;;;14.40;99.90;;;;;;5114937;28;20404;-66
2023/10/06 06:20:26;;;;;;;18.42;7.30;;;14.40;99.90;;;;;;5096442;28;20044;-66
2023/10/06 06:22:58;;;;;;;12.40;6.70;;;14.40;99.90;;;;;;5115150;28;20048;-66
2023/10/06 06:25:26;;;;;;;12.70;6.93;;;14.40;99.90;;;;;;5097346;28;20151;-66
2023/10/06 06:27:54;;;;;;;16.15;7.07;;;14.40;99.90;;;;;;5114950;28;20355;-66
2023/10/06 06:30:24;;;;;;;15.88;6.80;;;14.40;99.90;;;;;;5096375;28;20549;-67
2023/10/06 06:32:52;;;;;;;15.63;6.30;;;14.50;99.90;;;;;;5096738;28;20043;-66
2023/10/06 06:35:22;;;;;;;14.90;7.03;;;14.50;99.90;;;;;;5114457;28;20100;-73
2023/10/06 06:37:59;;;;;;;22.15;7.45;;;14.40;99.90;;;;;;5079608;28;20130;-66
2023/10/06 06:40:28;;;;;;;14.38;6.78;;;14.50;99.90;;;;;;5114267;28;20083;-66
2023/10/06 06:42:55;;;;;;;14.55;7.18;;;14.50;99.90;;;;;;5114405;28;20043;-67
2023/10/06 06:45:24;;;;;;;17.50;6.97;;;14.50;99.90;;;;;;5114296;28;20063;-68
2023/10/06 06:47:50;;;;;;;14.57;5.97;;;14.50;99.90;;;;;;5114397;28;20039;-66
2023/10/06 06:50:17;;;;;;;20.77;7.43;;;14.50;99.90;;;;;;5113624;28;20047;-65
2023/10/06 06:52:54;;;;;;;21.30;7.07;;;14.50;99.90;;;;;;5114112;28;20055;-66
2023/10/06 06:55:20;;;;;;;15.45;6.90;;;14.50;99.90;;;;;;5096341;28;20051;-70
2023/10/06 06:57:49;;;;;;;21.33;7.93;;;14.60;99.90;;;;;;5096180;28;20052;-65
2023/10/06 07:00:21;;;;;;;16.40;7.05;;;14.60;99.90;;;;;;5114204;28;20135;-65
2023/10/06 07:02:52;;;;;;;16.88;8.20;;;14.60;99.90;;;;;;5095810;28;20127;-65
2023/10/06 07:05:20;;;;;;;15.30;6.90;;;14.70;99.90;;;;;;5095954;28;20047;-64
2023/10/06 07:07:47;;;;;;;17.98;7.13;;;14.70;99.90;;;;;;5113563;28;20059;-65
2023/10/06 07:10:15;;;;;;;15.20;6.28;;;14.80;99.90;;;;;;5113843;28;20557;-64
2023/10/06 07:12:44;;;;;;;15.88;6.85;;;14.90;99.90;;;;;;5095733;28;20124;-64
2023/10/06 07:15:20;;;;;;;17.20;7.22;;;14.90;99.90;;;;;;5113908;28;20114;-64
2023/10/06 07:17:51;;;;;;;18.23;6.57;;;15.00;99.90;;;;;;5095637;28;20057;-65
2023/10/06 07:20:27;;;;;;;16.38;7.10;;;15.00;99.90;;;;;;5095680;28;20047;-66
2023/10/06 07:23:00;;;;;;;12.32;6.18;;;15.00;99.90;;;;;;5078744;28;20043;-65
2023/10/06 07:25:26;;;;;;;13.90;6.90;;;15.00;99.90;;;;;;5113792;28;20052;-69
2023/10/06 07:27:55;;;;;;;19.75;7.30;;;15.00;99.90;;;;;;5113503;28;20043;-65
2023/10/06 07:30:22;;;;;;;17.13;7.32;;;15.00;99.90;;;;;;5113694;28;20100;-64
2023/10/06 07:32:50;;;;;;;13.32;6.60;;;15.00;99.90;;;;;;5112925;28;20581;-65
2023/10/06 07:35:30;;;;;;;17.45;7.75;;;15.00;99.90;;;;;;5113894;28;20060;-65
2023/10/06 07:37:57;;;;;;;16.77;7.10;;;15.00;99.90;;;;;;5113428;28;20576;-64
2023/10/06 07:40:23;;;;;;;17.13;6.43;;;15.10;99.90;;;;;;5113866;28;20051;-64
2023/10/06 07:42:50;;;;;;;13.48;6.82;;;15.20;99.90;;;;;;5112972;28;20044;-64
2023/10/06 07:45:20;;;;;;;18.20;7.15;;;15.20;99.90;;;;;;5078168;28;20098;-64
2023/10/06 07:47:46;;;;;;;11.77;6.35;;;15.20;99.90;;;;;;5113214;28;20404;-64
2023/10/06 07:50:14;;;;;;;11.98;6.28;;;15.20;99.90;;;;;;5078459;28;20382;-64
2023/10/06 07:52:43;;;;;;;12.95;6.82;;;15.20;99.90;;;;;;5113026;28;20048;-68
2023/10/06 07:55:10;;;;;;;17.00;7.38;;;15.20;99.90;;;;;;5113097;28;20051;-65
2023/10/06 07:57:40;;;;;;;17.65;6.63;;;15.10;99.90;;;;;;5094769;28;20059;-65
2023/10/06 08:00:08;;;;;;;19.52;7.97;;;15.20;99.90;;;;;;5095002;28;20087;-65
2023/10/06 08:02:36;;;;;;;25.00;7.95;;;15.20;99.90;;;;;;5112582;28;20123;-65
2023/10/06 08:05:04;;;;;;;14.43;7.72;;;15.20;99.90;;;;;;5113034;28;20050;-65
2023/10/06 08:07:30;;;;;;;17.70;7.75;;;15.20;99.90;;;;;;5113073;28;20104;-65
2023/10/06 08:10:00;;;;;;;15.13;7.65;;;15.20;99.90;;;;;;5112715;28;20099;-65
2023/10/06 08:12:28;;;;;;;17.65;7.95;;;15.20;99.90;;;;;;5112661;28;20048;-65
2023/10/06 08:14:55;;;;;;;17.40;7.15;;;15.20;99.90;;;;;;5112497;28;20091;-65
2023/10/06 08:17:21;;;;;;;12.30;7.15;;;15.30;99.90;;;;;;5094825;28;20141;-65
2023/10/06 08:19:47;;;;;;;20.65;7.35;;;15.40;99.90;;;;;;5094444;28;20051;-65
2023/10/06 08:22:14;;;;;;;15.15;7.10;;;15.40;99.90;;;;;;5094504;28;20088;-65
2023/10/06 08:24:40;;;;;;;13.90;7.35;;;15.40;99.90;;;;;;5112301;28;20044;-65
2023/10/06 08:27:07;;;;;;;19.73;8.00;;;15.50;99.90;;;;;;5112915;28;20096;-65
2023/10/06 08:29:33;;;;;;;16.23;7.68;;;15.50;99.90;;;;;;5094510;28;20052;-70
2023/10/06 08:31:59;;;;;;;13.88;7.30;;;15.60;99.90;;;;;;5094476;28;20088;-65
2023/10/06 08:34:27;;;;;;;15.43;6.63;;;15.70;99.90;;;;;;5112642;28;20127;-65
2023/10/06 08:36:53;;;;;;;16.83;7.65;;;15.70;99.90;;;;;;5112191;28;20123;-65
2023/10/06 08:39:20;;;;;;;14.75;7.57;;;15.70;99.90;;;;;;5093944;28;20193;-66
2023/10/06 08:41:51;;;;;;;20.02;7.35;;;15.80;99.90;;;;;;5077473;28;20485;-66
2023/10/06 08:44:20;;;;;;;21.65;7.13;;;15.80;99.90;;;;;;5112303;28;20044;-66
2023/10/06 08:46:47;;;;;;;17.30;6.97;;;15.90;99.90;;;;;;5111773;28;20055;-66
2023/10/06 08:49:19;;;;;;;15.98;7.07;;;15.90;99.90;;;;;;5077930;28;20052;-65
2023/10/06 08:51:49;;;;;;;18.45;6.78;;;16.00;99.90;;;;;;5112149;28;20481;-66
2023/10/06 08:54:17;;;;;;;16.65;6.65;;;16.20;99.90;;;;;;5094653;28;20065;-66
2023/10/06 08:56:43;;;;;;;17.75;6.95;;;16.20;99.90;;;;;;5112181;28;20096;-67
2023/10/06 08:59:15;;;;;;;21.20;7.18;;;16.30;99.90;;;;;;5112299;28;20122;-66
2023/10/06 09:01:43;;;;;;;17.23;6.90;;;16.30;99.90;;;;;;5094805;28;20043;-67
2023/10/06 09:04:09;;;;;;;10.93;5.63;;;16.40;99.90;;;;;;5112260;28;20127;-66
2023/10/06 09:06:38;;;;;;;18.30;6.72;;;16.40;99.90;;;;;;5112052;28;20461;-64
2023/10/06 09:09:05;;;;;;;14.35;6.38;;;16.40;99.90;;;;;;5111871;28;20069;-64
2023/10/06 09:11:39;;;;;;;17.30;6.25;;;16.50;99.90;;;;;;5077413;28;20044;-66
2023/10/06 09:14:08;;;;;;;19.23;6.70;;;16.50;99.90;;;;;;5092593;28;20039;-65
2023/10/06 09:16:48;;;;;;;19.17;6.18;;;16.60;99.90;;;;;;5114201;28;20504;-64
2023/10/06 09:19:14;;;;;;;14.73;5.78;;;16.60;99.90;;;;;;5080392;28;20058;-65
2023/10/06 09:22:04;;;;;;;16.45;6.43;;;16.70;99.90;;;;;;5115626;28;20126;-70
2023/10/06 09:24:30;;;;;;;17.30;5.13;;;16.70;99.90;;;;;;5096377;28;20039;-65
2023/10/06 09:26:58;;;;;;;13.90;5.30;;;16.80;99.90;;;;;;5114623;28;20396;-64
2023/10/06 09:29:34;;;;;;;15.75;5.65;;;16.80;99.90;;;;;;5114532;28;20052;-65
2023/10/06 09:32:01;;;;;;;17.05;5.93;;;16.90;99.90;;;;;;5115624;28;20061;-66
2023/10/06 09:34:28;;;;;;;16.30;5.53;;;16.90;99.90;;;;;;5097625;28;20055;-64
2023/10/06 09:36:53;;;;;;;16.58;5.60;;;17.00;99.90;;;;;;5115447;28;20056;-65
2023/10/06 09:39:32;;;;;;;19.63;5.97;;;17.10;99.90;;;;;;5115021;28;20051;-65
2023/10/06 09:42:01;;;;;;;13.18;5.82;;;17.10;99.90;;;;;;5114747;28;20476;-64
2023/10/06 09:44:27;;;;;;;14.98;5.47;;;17.20;99.90;;;;;;5114933;28;20050;-66
2023/10/06 09:46:53;;;;;;;15.95;4.90;;;17.30;99.90;;;;;;5097322;28;20047;-64
2023/10/06 09:49:21;;;;;;;13.95;4.90;;;17.30;99.90;;;;;;5097372;28;20097;-64
2023/10/06 09:51:50;;;;;;;15.00;4.78;;;17.40;99.90;;;;;;5115033;28;20047;-64
2023/10/06 09:54:17;;;;;;;16.65;5.68;;;17.40;99.90;;;;;;5115400;28;20056;-65
2023/10/06 09:56:46;;;;;;;15.50;5.55;;;17.50;99.90;;;;;;5115290;28;20365;-69
2023/10/06 09:59:14;;;;;;;18.55;5.05;;;17.60;99.90;;;;;;5114890;28;20543;-64
2023/10/06 10:01:45;;;;;;;16.17;5.07;;;17.60;99.90;;;;;;5115089;28;20052;-64
2023/10/06 10:04:11;;;;;;;14.15;4.93;;;17.60;99.90;;;;;;5079895;28;20052;-65
2023/10/06 10:06:43;;;;;;;15.25;4.32;;;17.70;99.90;;;;;;5096785;28;20054;-65
2023/10/06 10:09:16;;;;;;;14.00;4.82;;;17.80;99.90;;;;;;5096504;28;20156;-64
2023/10/06 10:12:23;;;;;;;15.85;4.60;;;17.90;99.90;;;;;;5114970;28;20048;-68
2023/10/06 10:15:04;;;;;;;14.50;4.05;;;17.90;99.90;;;;;;5016298;28;20056;-70
2023/10/06 10:17:48;;;;;;;18.67;5.18;;;18.00;99.90;;;;;;5115082;28;20055;-65
2023/10/06 10:20:16;;;;;;;24.00;5.20;;;18.00;99.90;;;;;;5096780;28;20058;-65
2023/10/06 10:22:43;;;;;;;17.17;5.00;;;18.10;99.90;;;;;;5114452;28;20058;-64
2023/10/06 10:25:13;;;;;;;17.20;4.47;;;18.20;99.90;;;;;;5112709;28;20039;-65
2023/10/06 10:27:39;;;;;;;13.93;4.63;;;18.20;99.90;;;;;;5114568;28;20047;-65
2023/10/06 10:30:10;;;;;;;13.50;5.10;;;18.30;99.90;;;;;;5095682;28;20042;-64
2023/10/06 10:32:41;;;;;;;15.95;5.05;;;18.30;99.90;;;;;;5114896;28;20043;-64
2023/10/06 10:35:12;;;;;;;18.17;4.55;;;18.40;99.90;;;;;;5114335;28;20083;-64
2023/10/06 10:37:58;;;;;;;16.30;4.60;;;18.40;99.90;;;;;;5096599;28;20059;-64
2023/10/06 10:40:26;;;;;;;14.82;4.80;;;18.50;99.90;;;;;;5114260;28;20071;-64
2023/10/06 10:43:00;;;;;;;19.50;5.88;;;18.50;99.90;;;;;;5113950;28;20467;-69
2023/10/06 10:45:47;;;;;;;14.35;4.85;;;18.60;99.90;;;;;;5096701;28;20059;-63
2023/10/06 10:48:14;;;;;;;13.60;4.95;;;18.60;99.90;;;;;;5113566;28;20051;-64
2023/10/06 10:51:05;;;;;;;14.23;4.15;;;18.60;99.90;;;;;;5096463;28;20396;-64
2023/10/06 10:53:43;;;;;;;18.88;4.70;;;18.60;99.90;;;;;;5114561;28;20404;-64
2023/10/06 10:56:18;;;;;;;16.13;4.72;;;18.60;99.90;;;;;;5095687;28;20427;-65
2023/10/06 10:58:44;;;;;;;19.42;5.10;;;18.50;99.90;;;;;;5112887;28;20052;-66
2023/10/06 11:01:43;;;;;;;12.90;4.32;;;18.60;99.90;;;;;;5112819;28;20067;-64
2023/10/06 11:04:35;;;;;;;13.45;4.57;;;18.60;99.90;;;;;;5113961;28;20081;-65
2023/10/06 11:07:18;;;;;;;16.63;4.68;;;18.80;99.90;;;;;;5095840;28;20516;-65
2023/10/06 11:09:52;;;;;;;13.52;4.03;;;18.90;99.90;;;;;;5114121;28;20131;-66
2023/10/06 11:12:20;;;;;;;15.55;4.90;;;19.00;99.90;;;;;;5095410;28;20043;-65
2023/10/06 11:14:49;;;;;;;15.55;4.40;;;19.00;99.90;;;;;;5113931;28;20055;-65
2023/10/06 11:17:20;;;;;;;12.38;4.25;;;19.00;99.90;;;;;;5095375;28;20083;-64
2023/10/06 11:19:46;;;;;;;17.75;4.70;;;19.00;99.90;;;;;;5113955;28;20398;-65
2023/10/06 11:22:19;;;;;;;13.30;3.78;;;19.10;99.90;;;;;;5094610;28;20200;-66
2023/10/06 11:24:46;;;;;;;14.13;4.63;;;19.10;99.90;;;;;;5095540;28;20134;-65
2023/10/06 11:27:22;;;;;;;12.52;3.92;;;19.10;99.90;;;;;;5113474;28;20043;-65
2023/10/06 11:29:52;;;;;;;14.55;3.83;;;19.20;99.90;;;;;;5093859;28;20523;-66
2023/10/06 11:32:24;;;;;;;15.25;4.80;;;19.20;99.90;;;;;;5112275;28;20507;-65
2023/10/06 11:34:54;;;;;;;16.00;4.45;;;19.20;99.90;;;;;;5095288;28;20047;-66
2023/10/06 11:37:24;;;;;;;21.27;4.25;;;19.30;99.90;;;;;;5113014;28;20051;-66
2023/10/06 11:39:53;;;;;;;13.98;4.22;;;19.30;99.90;;;;;;5113105;28;20060;-66
2023/10/06 11:42:25;;;;;;;12.55;4.15;;;19.30;99.90;;;;;;5077703;28;20043;-66
2023/10/06 11:44:52;;;;;;;13.10;3.88;;;19.40;99.90;;;;;;5113240;28;20130;-65
2023/10/06 11:47:21;;;;;;;16.10;4.38;;;19.40;99.90;;;;;;5095169;28;20352;-65
2023/10/06 11:49:57;;;;;;;16.02;4.28;;;19.50;99.90;;;;;;5113271;28;20079;-66
2023/10/06 11:52:24;;;;;;;16.23;4.47;;;19.50;99.90;;;;;;5112490;28;20105;-66
2023/10/06 11:54:51;;;;;;;13.70;4.00;;;19.50;99.90;;;;;;5094568;28;20185;-65
2023/10/06 11:57:19;;;;;;;17.58;4.30;;;19.50;99.90;;;;;;5111928;28;20087;-66
2023/10/06 11:59:53;;;;;;;17.38;4.93;;;19.50;99.90;;;;;;5113237;28;20047;-66
2023/10/06 12:02:21;;;;;;;14.25;4.30;;;19.60;99.90;;;;;;5112410;28;20556;-66
2023/10/06 12:04:48;;;;;;;14.48;3.35;;;19.60;99.90;;;;;;5095278;28;20438;-67
2023/10/06 12:07:26;;;;;;;14.68;3.85;;;19.60;99.90;;;;;;5077647;28;20477;-66
2023/10/06 12:10:02;;;;;;;16.92;4.50;;;19.70;99.90;;;;;;5112980;28;20043;-66
2023/10/06 12:12:29;;;;;;;16.67;4.15;;;19.70;99.90;;;;;;5113019;28;20047;-67
2023/10/06 12:14:56;;;;;;;12.65;4.07;;;19.70;99.90;;;;;;5093333;28;20056;-66
2023/10/06 12:17:23;;;;;;;17.33;4.15;;;19.80;99.90;;;;;;5094530;28;20035;-66
2023/10/06 12:19:49;;;;;;;12.15;3.63;;;19.80;99.90;;;;;;5094934;28;20059;-65
2023/10/06 12:22:16;;;;;;;12.98;3.85;;;19.90;99.90;;;;;;5093905;28;20044;-66
2023/10/06 12:24:42;;;;;;;16.02;4.30;;;20.00;99.90;;;;;;5094410;28;20139;-65
2023/10/06 12:27:09;;;;;;;17.10;4.03;;;20.10;99.90;;;;;;5112490;28;20263;-67
2023/10/06 12:29:35;;;;;;;15.32;3.78;;;20.10;99.90;;;;;;5078420;28;20107;-66
2023/10/06 12:32:01;;;;;;;13.40;4.00;;;20.10;99.90;;;;;;5094662;28;20137;-67
2023/10/06 12:34:31;;;;;;;11.80;3.80;;;20.10;99.90;;;;;;5077068;28;20047;-68
2023/10/06 12:37:01;;;;;;;19.02;4.07;;;20.20;99.90;;;;;;5112621;28;20051;-65
2023/10/06 12:39:34;;;;;;;13.43;3.50;;;20.20;99.90;;;;;;5112241;28;20127;-67
2023/10/06 12:42:07;;;;;;;14.68;4.97;;;20.10;99.90;;;;;;5112722;28;20055;-67
2023/10/06 12:44:39;;;;;;;13.13;3.20;;;20.20;99.90;;;;;;5094463;28;20140;-66
2023/10/06 12:47:10;;;;;;;11.07;3.40;;;20.20;99.90;;;;;;5094520;28;20849;-65
2023/10/06 12:49:37;;;;;;;13.10;3.83;;;20.20;99.90;;;;;;5093927;28;20059;-65
2023/10/06 12:52:03;;;;;;;12.60;3.50;;;20.10;99.90;;;;;;5112614;28;20050;-65
2023/10/06 12:54:29;;;;;;;18.85;4.80;;;20.00;99.90;;;;;;5111852;28;20134;-66
2023/10/06 12:56:55;;;;;;;16.35;4.45;;;19.90;99.90;;;;;;5094047;28;20482;-66
2023/10/06 12:59:21;;;;;;;14.63;3.22;;;19.80;99.90;;;;;;5094094;28;20050;-66
2023/10/06 13:01:49;;;;;;;14.45;3.40;;;19.80;99.90;;;;;;5094476;28;20043;-66
2023/10/06 13:04:15;;;;;;;13.63;3.38;;;19.70;99.90;;;;;;5111857;28;20150;-66